Time;durP1;ratioP1;P1;durP2;ratioP2;P2;SDS_P1;SDS_P2;PMS_P1;PMS_P2;Temp;Humidity;BMP_temperature;BMP_pressure;BME280_temperature;BME280_humidity;BME280_pressure;Samples;Min_cycle;Max_cycle;Signal;HPM_P1;HPM_P2
2023/01/31 00:01:17;;;;;;;17.50;4.87;;;;;;;;;;6306017;22;20169;-89
2023/01/31 00:04:23;;;;;;;11.37;4.50;;;;;;;;;;6307689;22;20198;-91
2023/01/31 00:07:30;;;;;;;14.03;5.10;;;;;;;;;;6306824;22;20232;-91
2023/01/31 00:10:35;;;;;;;9.50;3.73;;;;;;;;;;6307401;22;20327;-91
2023/01/31 00:13:40;;;;;;;11.67;4.30;;;;;;;;;;6307058;22;20239;-90
2023/01/31 00:16:45;;;;;;;11.93;4.53;;;;;;;;;;6309295;22;20212;-90
2023/01/31 00:19:51;;;;;;;12.17;4.13;;;;;;;;;;6308909;22;20168;-89
2023/01/31 00:22:57;;;;;;;17.47;5.27;;;;;;;;;;6308903;22;20200;-91
2023/01/31 00:26:10;;;;;;;14.47;4.90;;;;;;;;;;6308143;22;20574;-90
2023/01/31 00:29:15;;;;;;;9.80;4.33;;;;;;;;;;6307731;22;20182;-89
2023/01/31 00:32:25;;;;;;;11.37;4.07;;;;;;;;;;6306426;22;20154;-91
2023/01/31 00:35:30;;;;;;;19.33;4.60;;;;;;;;;;6307266;22;20165;-90
2023/01/31 00:38:38;;;;;;;13.90;4.53;;;;;;;;;;6289726;22;20169;-89
2023/01/31 00:41:43;;;;;;;12.70;4.40;;;;;;;;;;6307462;22;20173;-90
2023/01/31 00:44:59;;;;;;;14.20;4.43;;;;;;;;;;6309599;22;20161;-90
2023/01/31 00:48:04;;;;;;;14.30;4.70;;;;;;;;;;6307891;22;20218;-91
2023/01/31 00:51:10;;;;;;;15.13;4.37;;;;;;;;;;6306002;22;20176;-89
2023/01/31 00:54:16;;;;;;;11.63;4.30;;;;;;;;;;6304659;22;20169;-91
2023/01/31 00:57:22;;;;;;;14.73;4.70;;;;;;;;;;6304939;22;20160;-90
2023/01/31 01:00:27;;;;;;;18.27;5.10;;;;;;;;;;6303216;22;20254;-91
2023/01/31 01:03:32;;;;;;;12.93;4.67;;;;;;;;;;6305029;22;20149;-92
2023/01/31 01:06:40;;;;;;;16.67;4.53;;;;;;;;;;6303317;22;20290;-92
2023/01/31 01:09:47;;;;;;;10.67;4.20;;;;;;;;;;6303984;22;20204;-90
2023/01/31 01:12:52;;;;;;;14.40;4.80;;;;;;;;;;6305442;22;20157;-92
2023/01/31 01:15:57;;;;;;;12.93;4.73;;;;;;;;;;6305203;22;20237;-92
2023/01/31 01:19:03;;;;;;;13.27;4.73;;;;;;;;;;6305648;22;20605;-93
2023/01/31 01:22:15;;;;;;;16.17;5.10;;;;;;;;;;6304957;22;20172;-90
2023/01/31 01:25:22;;;;;;;15.77;4.27;;;;;;;;;;6304815;22;20169;-93
2023/01/31 01:28:27;;;;;;;14.47;4.30;;;;;;;;;;6307109;22;20573;-90
2023/01/31 01:31:32;;;;;;;13.10;4.57;;;;;;;;;;6305214;22;20192;-92
2023/01/31 01:34:37;;;;;;;16.27;4.87;;;;;;;;;;6304072;22;20510;-89
2023/01/31 01:37:44;;;;;;;13.83;4.20;;;;;;;;;;6302618;22;20165;-91
2023/01/31 01:40:51;;;;;;;14.37;3.93;;;;;;;;;;6307522;22;20212;-91
2023/01/31 01:43:58;;;;;;;13.83;4.63;;;;;;;;;;6308441;22;20169;-93
2023/01/31 01:47:03;;;;;;;14.23;4.70;;;;;;;;;;6308494;22;20211;-91
2023/01/31 01:50:12;;;;;;;12.47;4.30;;;;;;;;;;6306928;22;20235;-92
2023/01/31 01:53:20;;;;;;;10.07;4.00;;;;;;;;;;6308791;22;20173;-90
2023/01/31 03:42:06;;;;;;;16.00;4.27;;;;;;;;;;6324159;22;20182;-89
2023/01/31 03:45:13;;;;;;;12.20;4.17;;;;;;;;;;6304405;22;20165;-90
2023/01/31 03:48:21;;;;;;;19.90;4.20;;;;;;;;;;6304821;22;20323;-89
2023/01/31 03:51:28;;;;;;;14.83;3.90;;;;;;;;;;6306529;22;20265;-92
2023/01/31 03:54:36;;;;;;;13.70;3.53;;;;;;;;;;6305433;22;20162;-90
2023/01/31 03:57:46;;;;;;;16.37;4.60;;;;;;;;;;6306021;22;20161;-90
2023/01/31 04:00:52;;;;;;;18.50;4.23;;;;;;;;;;6324675;22;20165;-91
2023/01/31 04:04:00;;;;;;;13.47;4.07;;;;;;;;;;6307225;22;20229;-90
2023/01/31 04:07:05;;;;;;;16.43;4.53;;;;;;;;;;6307599;22;20177;-91
2023/01/31 04:10:15;;;;;;;11.03;3.63;;;;;;;;;;6307883;22;20231;-92
2023/01/31 04:13:48;;;;;;;13.33;4.20;;;;;;;;;;6306286;22;20148;-89
2023/01/31 04:16:55;;;;;;;14.33;3.57;;;;;;;;;;6303817;22;20149;-91
2023/01/31 04:20:00;;;;;;;13.77;3.93;;;;;;;;;;6307754;22;20619;-90
2023/01/31 04:23:05;;;;;;;12.53;3.63;;;;;;;;;;6307078;22;20168;-89
2023/01/31 04:26:11;;;;;;;15.37;3.63;;;;;;;;;;6305291;22;20181;-88
2023/01/31 04:29:16;;;;;;;14.60;3.77;;;;;;;;;;6304608;22;20176;-90
2023/01/31 04:32:26;;;;;;;8.33;2.93;;;;;;;;;;6306527;22;20149;-90
2023/01/31 04:35:31;;;;;;;14.80;3.60;;;;;;;;;;6306355;22;20161;-88
2023/01/31 04:38:36;;;;;;;17.83;3.83;;;;;;;;;;6303685;22;20216;-92
2023/01/31 04:41:42;;;;;;;18.90;3.80;;;;;;;;;;6304199;22;20256;-91
2023/01/31 04:44:47;;;;;;;16.20;4.07;;;;;;;;;;6305504;22;20643;-91
2023/01/31 04:47:53;;;;;;;13.60;3.93;;;;;;;;;;6324941;22;20161;-91
2023/01/31 04:50:59;;;;;;;15.40;4.07;;;;;;;;;;6305198;22;20196;-91
2023/01/31 04:54:04;;;;;;;16.67;4.30;;;;;;;;;;6305278;22;20165;-91
2023/01/31 04:57:10;;;;;;;10.87;3.67;;;;;;;;;;6303308;22;20207;-91
2023/01/31 05:00:15;;;;;;;15.37;4.40;;;;;;;;;;6304926;22;20200;-92
2023/01/31 05:03:22;;;;;;;12.80;3.37;;;;;;;;;;6304627;22;20168;-91
2023/01/31 05:06:27;;;;;;;14.57;4.23;;;;;;;;;;6306515;22;20503;-92
2023/01/31 05:09:32;;;;;;;20.30;4.50;;;;;;;;;;6305259;22;20168;-92
2023/01/31 05:12:38;;;;;;;17.57;4.03;;;;;;;;;;6304731;22;20249;-90
2023/01/31 05:15:43;;;;;;;14.50;3.97;;;;;;;;;;6307676;22;20191;-91
2023/01/31 05:18:50;;;;;;;9.37;3.47;;;;;;;;;;6304527;22;20235;-90
2023/01/31 05:21:57;;;;;;;10.40;3.50;;;;;;;;;;6305611;22;20168;-90
2023/01/31 05:25:03;;;;;;;23.73;4.60;;;;;;;;;;6306049;22;20256;-91
2023/01/31 05:28:09;;;;;;;17.70;4.30;;;;;;;;;;6303848;22;20162;-91
2023/01/31 05:31:14;;;;;;;11.47;3.83;;;;;;;;;;6305300;22;20176;-90
2023/01/31 05:34:20;;;;;;;11.60;4.10;;;;;;;;;;6304525;22;20165;-91
2023/01/31 05:37:25;;;;;;;19.87;4.07;;;;;;;;;;6304586;22;20172;-90
2023/01/31 05:40:30;;;;;;;15.63;4.13;;;;;;;;;;6303419;22;20201;-90
2023/01/31 05:43:35;;;;;;;10.97;3.70;;;;;;;;;;6304499;22;20269;-91
2023/01/31 05:46:41;;;;;;;15.67;4.13;;;;;;;;;;6304280;22;20234;-90
2023/01/31 05:49:49;;;;;;;10.63;3.80;;;;;;;;;;6305878;22;20149;-93
2023/01/31 05:52:55;;;;;;;17.07;4.00;;;;;;;;;;6305845;22;20218;-91
2023/01/31 05:56:00;;;;;;;13.07;4.20;;;;;;;;;;6302986;22;20598;-90
2023/01/31 05:59:05;;;;;;;14.30;4.20;;;;;;;;;;6303192;22;20169;-90
2023/01/31 06:02:11;;;;;;;14.13;4.27;;;;;;;;;;6317635;22;20247;-90
2023/01/31 06:05:18;;;;;;;16.47;3.60;;;;;;;;;;6304160;22;20152;-90
2023/01/31 06:08:24;;;;;;;13.00;3.73;;;;;;;;;;6304499;22;20304;-91
2023/01/31 06:11:30;;;;;;;12.67;3.47;;;;;;;;;;6306197;22;20193;-93
2023/01/31 06:14:35;;;;;;;13.93;4.00;;;;;;;;;;6306224;22;20161;-93
2023/01/31 06:21:30;;;;;;;11.17;4.00;;;;;;;;;;6307951;22;20177;-90
2023/01/31 06:24:35;;;;;;;13.90;4.30;;;;;;;;;;6306830;22;20189;-92
2023/01/31 06:27:40;;;;;;;14.87;4.20;;;;;;;;;;6306248;22;20164;-90
2023/01/31 06:30:47;;;;;;;14.43;4.00;;;;;;;;;;6305597;22;20201;-90
2023/01/31 06:33:53;;;;;;;12.87;3.83;;;;;;;;;;6309484;22;20172;-90
2023/01/31 08:08:24;;;;;;;9.93;3.33;;;;;;;;;;6306014;22;20429;-91
2023/01/31 08:11:30;;;;;;;14.70;3.90;;;;;;;;;;6309538;22;20216;-92
2023/01/31 08:14:35;;;;;;;15.20;3.63;;;;;;;;;;6308665;22;20192;-91
2023/01/31 08:17:40;;;;;;;16.93;4.17;;;;;;;;;;6328659;22;20161;-88
2023/01/31 08:20:45;;;;;;;14.77;4.00;;;;;;;;;;6308520;22;20165;-90
2023/01/31 08:23:52;;;;;;;16.10;3.30;;;;;;;;;;6309600;22;20149;-89
2023/01/31 08:26:57;;;;;;;13.03;3.67;;;;;;;;;;6307510;22;20208;-92
2023/01/31 08:30:02;;;;;;;13.20;3.47;;;;;;;;;;6308388;22;20185;-90
2023/01/31 08:33:08;;;;;;;13.40;3.70;;;;;;;;;;6309069;22;20686;-90
2023/01/31 08:45:02;;;;;;;13.07;3.27;;;;;;;;;;6316872;22;20210;-90
2023/01/31 08:48:08;;;;;;;13.07;3.00;;;;;;;;;;6311043;22;20165;-91
2023/01/31 08:51:16;;;;;;;15.80;3.20;;;;;;;;;;6309956;22;20193;-91
2023/01/31 08:54:24;;;;;;;11.83;3.33;;;;;;;;;;6310556;22;20161;-93
2023/01/31 08:57:29;;;;;;;15.70;3.17;;;;;;;;;;6308819;22;20204;-90
2023/01/31 09:00:37;;;;;;;10.57;3.30;;;;;;;;;;6310726;22;20157;-90
2023/01/31 09:07:02;;;;;;;11.03;3.53;;;;;;;;;;6306360;22;20181;-90
2023/01/31 09:10:08;;;;;;;8.77;3.07;;;;;;;;;;6307134;22;20210;-91
2023/01/31 09:13:13;;;;;;;12.83;3.20;;;;;;;;;;6308257;22;20149;-90
2023/01/31 09:16:25;;;;;;;11.47;2.87;;;;;;;;;;6307699;22;20173;-90
2023/01/31 09:19:30;;;;;;;10.53;3.30;;;;;;;;;;6307584;22;20239;-90
2023/01/31 09:22:36;;;;;;;14.20;4.17;;;;;;;;;;6308708;22;20239;-91
2023/01/31 09:25:42;;;;;;;16.70;3.77;;;;;;;;;;6307598;22;20169;-90
2023/01/31 09:28:49;;;;;;;12.20;3.27;;;;;;;;;;6308247;22;20168;-89
2023/01/31 09:31:56;;;;;;;9.60;3.17;;;;;;;;;;6309513;22;20196;-92
2023/01/31 09:35:03;;;;;;;13.97;4.77;;;;;;;;;;6309600;22;20177;-91
2023/01/31 09:41:31;;;;;;;14.03;3.27;;;;;;;;;;6311830;22;20185;-91
2023/01/31 09:44:40;;;;;;;13.53;3.00;;;;;;;;;;6295217;22;20189;-91
2023/01/31 09:47:48;;;;;;;11.20;2.80;;;;;;;;;;6277246;22;20195;-91
2023/01/31 09:50:55;;;;;;;13.00;3.10;;;;;;;;;;6276252;22;20208;-91
2023/01/31 09:54:02;;;;;;;17.67;3.93;;;;;;;;;;6276034;22;20201;-91
2023/01/31 09:57:11;;;;;;;16.47;4.17;;;;;;;;;;6272048;22;20166;-90
2023/01/31 10:00:19;;;;;;;9.20;3.13;;;;;;;;;;6276410;22;20198;-91
2023/01/31 10:03:46;;;;;;;13.43;3.50;;;;;;;;;;6278230;22;20168;-93
2023/01/31 10:06:57;;;;;;;9.27;3.33;;;;;;;;;;6277607;22;20163;-90
2023/01/31 10:10:07;;;;;;;14.97;3.97;;;;;;;;;;6274909;22;20170;-91
2023/01/31 10:13:16;;;;;;;19.73;4.00;;;;;;;;;;6276007;22;20177;-91
2023/01/31 10:16:24;;;;;;;10.07;3.23;;;;;;;;;;6276122;22;20173;-90
2023/01/31 10:19:37;;;;;;;13.27;3.57;;;;;;;;;;6275293;22;20269;-91
2023/01/31 10:22:46;;;;;;;16.13;3.63;;;;;;;;;;6294773;22;20246;-90
2023/01/31 10:25:55;;;;;;;10.67;3.33;;;;;;;;;;6275180;22;20165;-90
2023/01/31 10:29:03;;;;;;;10.87;3.30;;;;;;;;;;6276847;22;20212;-89
2023/01/31 10:32:14;;;;;;;11.00;3.87;;;;;;;;;;6276653;22;20265;-91
2023/01/31 10:35:24;;;;;;;11.37;2.87;;;;;;;;;;6277647;22;20165;-91
2023/01/31 10:38:33;;;;;;;16.33;4.33;;;;;;;;;;6276162;22;20593;-93
2023/01/31 10:41:48;;;;;;;15.13;3.47;;;;;;;;;;6274551;22;20162;-93
2023/01/31 10:44:55;;;;;;;14.27;3.00;;;;;;;;;;6298006;22;20207;-91
2023/01/31 10:48:13;;;;;;;15.23;3.20;;;;;;;;;;6305605;22;20238;-92
2023/01/31 10:51:29;;;;;;;16.87;2.93;;;;;;;;;;6306700;22;20150;-89
2023/01/31 10:54:40;;;;;;;12.23;3.43;;;;;;;;;;6305237;22;20165;-90
2023/01/31 10:57:45;;;;;;;7.80;2.73;;;;;;;;;;6305021;22;20165;-91
2023/01/31 11:00:51;;;;;;;11.50;3.00;;;;;;;;;;6305846;22;20235;-91
2023/01/31 11:03:59;;;;;;;11.33;2.60;;;;;;;;;;6305427;22;20169;-91
2023/01/31 11:10:28;;;;;;;12.47;2.90;;;;;;;;;;6307295;22;20197;-90
2023/01/31 11:13:33;;;;;;;13.70;3.30;;;;;;;;;;6306531;22;20232;-90
2023/01/31 11:16:39;;;;;;;9.93;2.60;;;;;;;;;;6305204;22;20589;-92
2023/01/31 11:19:49;;;;;;;10.93;2.63;;;;;;;;;;6307178;22;20149;-88
2023/01/31 11:22:57;;;;;;;11.90;2.90;;;;;;;;;;6306535;22;20162;-88
2023/01/31 11:26:03;;;;;;;9.27;2.43;;;;;;;;;;6306829;22;20253;-91
2023/01/31 11:29:09;;;;;;;8.13;2.10;;;;;;;;;;6304323;22;20284;-89
2023/01/31 11:32:22;;;;;;;14.20;2.60;;;;;;;;;;6305930;22;20236;-90
2023/01/31 11:35:29;;;;;;;10.13;2.50;;;;;;;;;;6308358;22;20145;-91
2023/01/31 11:38:37;;;;;;;11.30;2.57;;;;;;;;;;6305769;22;20161;-91
2023/01/31 11:41:42;;;;;;;12.03;2.33;;;;;;;;;;6308771;22;20153;-91
2023/01/31 11:44:59;;;;;;;14.10;2.97;;;;;;;;;;6308066;22;20188;-91
2023/01/31 11:48:10;;;;;;;10.80;2.30;;;;;;;;;;6308277;22;20165;-91
2023/01/31 11:51:25;;;;;;;6.33;1.97;;;;;;;;;;6308136;22;20169;-91
2023/01/31 11:54:34;;;;;;;12.93;2.13;;;;;;;;;;6309728;22;20154;-90
2023/01/31 11:57:44;;;;;;;13.03;2.30;;;;;;;;;;6312743;22;20167;-89
2023/01/31 12:07:21;;;;;;;8.57;2.00;;;;;;;;;;6310597;22;20647;-90
2023/01/31 12:10:32;;;;;;;9.23;2.10;;;;;;;;;;6310720;22;20166;-90
2023/01/31 12:13:46;;;;;;;15.53;2.10;;;;;;;;;;6310774;22;20196;-89
2023/01/31 12:16:54;;;;;;;17.30;2.50;;;;;;;;;;6311209;22;20173;-90
2023/01/31 12:20:07;;;;;;;6.17;2.10;;;;;;;;;;6309929;22;20184;-89
2023/01/31 12:23:26;;;;;;;14.03;2.00;;;;;;;;;;6310675;22;20192;-91
2023/01/31 12:26:37;;;;;;;9.60;2.57;;;;;;;;;;6314331;22;20198;-91
2023/01/31 12:29:57;;;;;;;9.47;2.43;;;;;;;;;;6312617;22;20216;-90
2023/01/31 12:33:10;;;;;;;14.80;3.37;;;;;;;;;;6312351;22;20196;-90
2023/01/31 12:36:23;;;;;;;17.30;4.20;;;;;;;;;;6313638;22;20168;-91
2023/01/31 12:39:42;;;;;;;17.10;3.20;;;;;;;;;;6309637;22;20165;-91
2023/01/31 12:42:54;;;;;;;13.27;2.23;;;;;;;;;;6308999;22;20169;-89
2023/01/31 12:46:06;;;;;;;13.60;2.50;;;;;;;;;;6309798;22;20157;-90
2023/01/31 12:49:29;;;;;;;13.30;3.03;;;;;;;;;;6309666;22;20169;-89
2023/01/31 12:52:40;;;;;;;14.97;2.60;;;;;;;;;;6310047;22;20181;-90
2023/01/31 12:55:50;;;;;;;9.30;2.27;;;;;;;;;;6312335;22;20169;-90
2023/01/31 12:59:01;;;;;;;17.33;2.20;;;;;;;;;;6309553;22;20196;-91
2023/01/31 13:02:15;;;;;;;9.10;2.17;;;;;;;;;;6309216;22;20169;-90
2023/01/31 13:05:25;;;;;;;8.73;2.23;;;;;;;;;;6294881;22;20216;-91
2023/01/31 13:08:31;;;;;;;11.17;2.60;;;;;;;;;;6276401;22;20625;-90
2023/01/31 13:12:00;;;;;;;10.30;1.97;;;;;;;;;;6277675;22;20200;-87
2023/01/31 13:15:23;;;;;;;18.63;2.67;;;;;;;;;;6280407;22;20170;-91
2023/01/31 13:18:30;;;;;;;7.17;1.90;;;;;;;;;;6278258;22;20209;-90
2023/01/31 13:25:01;;;;;;;12.60;2.17;;;;;;;;;;6281542;22;20165;-92
2023/01/31 13:28:15;;;;;;;7.37;1.93;;;;;;;;;;6281299;22;20173;-90
2023/01/31 13:38:10;;;;;;;14.10;2.40;;;;;;;;;;6280867;22;20222;-90
2023/01/31 13:41:19;;;;;;;11.07;2.23;;;;;;;;;;6281087;22;20217;-93
2023/01/31 13:44:27;;;;;;;17.30;2.60;;;;;;;;;;6279447;22;20250;-92
2023/01/31 13:47:54;;;;;;;10.80;2.03;;;;;;;;;;6281698;22;20146;-90
2023/01/31 13:51:02;;;;;;;13.20;2.97;;;;;;;;;;6280916;22;20177;-90
2023/01/31 13:54:15;;;;;;;9.47;2.30;;;;;;;;;;6279137;22;20236;-91
2023/01/31 13:57:27;;;;;;;9.23;2.07;;;;;;;;;;6280189;22;20247;-92
2023/01/31 14:00:39;;;;;;;7.70;2.03;;;;;;;;;;6280672;22;20166;-91
2023/01/31 14:07:51;;;;;;;11.43;2.33;;;;;;;;;;6220848;22;20164;-92
2023/01/31 14:10:58;;;;;;;7.93;1.90;;;;;;;;;;6292074;22;20226;-91
2023/01/31 14:14:26;;;;;;;10.63;1.80;;;;;;;;;;6310826;22;20184;-91
2023/01/31 14:21:37;;;;;;;10.93;2.20;;;;;;;;;;6283086;22;20185;-92
2023/01/31 14:25:05;;;;;;;10.37;2.23;;;;;;;;;;6310859;22;20176;-89
2023/01/31 14:31:35;;;;;;;11.73;2.40;;;;;;;;;;6311068;22;20161;-92
2023/01/31 14:34:51;;;;;;;20.47;2.40;;;;;;;;;;6310854;22;20173;-92
2023/01/31 14:38:07;;;;;;;8.77;1.70;;;;;;;;;;6328519;22;20240;-91
2023/01/31 14:41:24;;;;;;;18.00;2.43;;;;;;;;;;6310317;22;20215;-91
2023/01/31 14:44:38;;;;;;;21.73;3.23;;;;;;;;;;6312726;22;20350;-92
2023/01/31 14:47:54;;;;;;;9.37;1.67;;;;;;;;;;6308845;22;20216;-90
2023/01/31 14:51:19;;;;;;;7.30;1.70;;;;;;;;;;6306488;22;20149;-91
2023/01/31 14:54:40;;;;;;;11.87;2.17;;;;;;;;;;6309273;22;20188;-91
2023/01/31 14:57:48;;;;;;;7.43;1.90;;;;;;;;;;6306734;22;20212;-92
2023/01/31 15:00:58;;;;;;;10.30;2.30;;;;;;;;;;6308183;22;20172;-89
2023/01/31 15:04:04;;;;;;;8.27;2.37;;;;;;;;;;6308755;22;20193;-91
2023/01/31 15:07:17;;;;;;;9.83;1.93;;;;;;;;;;6309857;22;20168;-90
2023/01/31 15:10:37;;;;;;;14.27;2.37;;;;;;;;;;6310225;22;20161;-90
2023/01/31 15:13:47;;;;;;;18.57;2.87;;;;;;;;;;6310700;22;20204;-90
2023/01/31 15:20:24;;;;;;;11.50;2.30;;;;;;;;;;6332471;22;20145;-90
2023/01/31 15:23:30;;;;;;;12.07;2.40;;;;;;;;;;6315011;22;20161;-94
2023/01/31 15:26:37;;;;;;;6.93;2.23;;;;;;;;;;6312324;22;20212;-90
2023/01/31 15:29:49;;;;;;;12.23;1.87;;;;;;;;;;6311838;22;20166;-89
2023/01/31 15:32:58;;;;;;;11.70;2.00;;;;;;;;;;6311213;22;20189;-90
2023/01/31 15:36:08;;;;;;;7.13;2.30;;;;;;;;;;6313245;22;20158;-91
2023/01/31 15:39:22;;;;;;;12.60;2.20;;;;;;;;;;6311761;22;20224;-93
2023/01/31 15:42:31;;;;;;;8.13;2.30;;;;;;;;;;6312928;22;20153;-91
2023/01/31 15:45:37;;;;;;;19.17;3.30;;;;;;;;;;6309740;22;20207;-90
2023/01/31 15:48:57;;;;;;;14.23;3.27;;;;;;;;;;6309863;22;20183;-90
2023/01/31 15:52:12;;;;;;;9.97;2.57;;;;;;;;;;6312517;22;20236;-91
2023/01/31 15:55:21;;;;;;;9.57;2.70;;;;;;;;;;6311362;22;20161;-91
2023/01/31 15:58:28;;;;;;;13.83;3.33;;;;;;;;;;6309621;22;20172;-91
2023/01/31 16:01:34;;;;;;;13.73;2.47;;;;;;;;;;6311541;22;20205;-89
2023/01/31 16:04:43;;;;;;;7.07;2.70;;;;;;;;;;6310116;22;20196;-91
2023/01/31 16:07:49;;;;;;;14.17;3.53;;;;;;;;;;6311850;22;20173;-91
2023/01/31 16:10:57;;;;;;;19.17;3.43;;;;;;;;;;6312184;22;20156;-90
2023/01/31 16:22:34;;;;;;;11.43;3.10;;;;;;;;;;6316203;22;20210;-88
2023/01/31 16:25:44;;;;;;;6.63;1.77;;;;;;;;;;6312030;22;20165;-90
2023/01/31 16:28:56;;;;;;;9.27;2.60;;;;;;;;;;6312757;22;20168;-89
2023/01/31 16:32:02;;;;;;;10.13;3.70;;;;;;;;;;6312803;22;20168;-91
2023/01/31 16:35:09;;;;;;;19.10;4.53;;;;;;;;;;6309616;22;20169;-91
2023/01/31 16:38:22;;;;;;;19.13;4.57;;;;;;;;;;6310033;22;20169;-90
2023/01/31 16:41:47;;;;;;;11.50;3.67;;;;;;;;;;6310050;22;20240;-89
2023/01/31 16:44:54;;;;;;;14.47;3.40;;;;;;;;;;6328215;22;20168;-91
2023/01/31 16:48:11;;;;;;;11.30;3.20;;;;;;;;;;6328588;22;20639;-92
2023/01/31 16:51:40;;;;;;;13.33;3.73;;;;;;;;;;6310740;22;20209;-91
2023/01/31 16:54:59;;;;;;;9.17;3.37;;;;;;;;;;6311707;22;20224;-91
2023/01/31 16:58:05;;;;;;;13.73;3.40;;;;;;;;;;6310538;22;20200;-91
2023/01/31 17:01:12;;;;;;;15.97;3.83;;;;;;;;;;6311505;22;20238;-90
2023/01/31 17:04:21;;;;;;;13.07;3.43;;;;;;;;;;6309063;22;20691;-91
2023/01/31 17:07:33;;;;;;;11.13;3.20;;;;;;;;;;6310889;22;20153;-90
2023/01/31 17:10:51;;;;;;;13.63;3.60;;;;;;;;;;6312829;22;20168;-88
2023/01/31 17:13:57;;;;;;;14.47;4.03;;;;;;;;;;6313276;22;20265;-91
2023/01/31 17:20:25;;;;;;;12.77;3.70;;;;;;;;;;6312962;22;20211;-91
2023/01/31 17:23:35;;;;;;;16.87;4.37;;;;;;;;;;6313495;22;20165;-91
2023/01/31 17:30:35;;;;;;;15.37;5.10;;;;;;;;;;6331607;22;20177;-90
2023/01/31 17:37:35;;;;;;;13.77;3.87;;;;;;;;;;6313303;22;20164;-91
2023/01/31 17:40:44;;;;;;;14.10;5.23;;;;;;;;;;6311025;22;20219;-89
2023/01/31 17:47:10;;;;;;;8.03;3.40;;;;;;;;;;6312656;22;20158;-90
2023/01/31 17:50:26;;;;;;;9.43;3.60;;;;;;;;;;6312005;22;20250;-91
2023/01/31 17:53:48;;;;;;;12.03;3.53;;;;;;;;;;6312135;22;20197;-90
2023/01/31 17:57:11;;;;;;;15.37;4.17;;;;;;;;;;6329818;22;20226;-90
2023/01/31 18:03:59;;;;;;;17.10;4.37;;;;;;;;;;6312957;22;20161;-90
2023/01/31 18:07:05;;;;;;;14.93;4.53;;;;;;;;;;6311418;22;20172;-90
2023/01/31 18:20:34;;;;;;;8.90;3.70;;;;;;;;;;6313350;22;20145;-91
2023/01/31 19:02:54;;;;;;;14.17;4.77;;;;;;;;;;6292406;22;20189;-91
2023/01/31 19:06:04;;;;;;;14.33;5.33;;;;;;;;;;6309999;22;20244;-92
2023/01/31 19:09:12;;;;;;;16.50;4.37;;;;;;;;;;6327533;22;20210;-93
2023/01/31 19:12:19;;;;;;;11.33;4.00;;;;;;;;;;6311679;22;20150;-90
2023/01/31 19:18:45;;;;;;;13.00;3.63;;;;;;;;;;6312534;22;20187;-91
2023/01/31 20:32:19;;;;;;;18.90;6.43;;;;;;;;;;6287156;22;20221;-95
2023/01/31 20:43:54;;;;;;;13.97;5.57;;;;;;;;;;6294342;22;20218;-93
2023/01/31 20:47:09;;;;;;;15.70;6.00;;;;;;;;;;6281594;22;20162;-94
2023/01/31 20:53:17;;;;;;;14.63;5.90;;;;;;;;;;6277994;22;20692;-93
2023/01/31 20:56:25;;;;;;;12.83;6.10;;;;;;;;;;6332913;22;20177;-92
2023/01/31 22:07:25;;;;;;;20.83;6.93;;;;;;;;;;6239646;23;20166;-91
2023/01/31 22:10:35;;;;;;;16.40;7.00;;;;;;;;;;6256148;22;20175;-91
2023/01/31 22:13:47;;;;;;;14.33;6.67;;;;;;;;;;6256963;22;20282;-94
2023/01/31 22:16:54;;;;;;;17.60;4.37;;;;;;;;;;6239882;23;20196;-90
2023/01/31 23:56:55;;;;;;;16.87;5.17;;;;;;;;;;6268110;22;20206;-92
